De Pere, Wisconsin
Current Conditions -  °F | °C
As of 6:53 PM on Monday 24 Nov 2014 (Local Time) from KGRB Reporting Station
Light Snow Light Snow  
Wind Chill: 16°   Ceiling: 1700
Heat Index: 29°   Visibility: 1mi
Dew Point: 26°   Wind: 20mph
Humidity: 89%   Direction: 320°NW
Pressure: 29.46"   Gusts: 24mph
Location:  44.45°N, 88.08°W
Report Text: KGRB 250053Z 32017G21KT 1SM -SN BR FEW007 OVC017 M02/M03 A2946 RMK AO2 SLP983 P0003 T10171033 RVRNO
Loading
Personal Weather Stations






























Interactive Weather Map New forecast layout! Learn more

10-Day Weather Forecast

Advertisements
Track Severe Weather on mobile